createdAt,value
2023-03-02T00:01:54.789Z,33.00
2023-03-02T00:04:37.506Z,32.97
2023-03-02T00:07:13.192Z,35.97
2023-03-02T00:09:46.887Z,36.28
2023-03-02T00:12:21.548Z,31.25
2023-03-02T00:14:56.234Z,39.63
2023-03-02T00:17:32.909Z,36.25
2023-03-02T00:20:16.634Z,36.30
2023-03-02T00:22:50.318Z,45.20
2023-03-02T00:25:25.005Z,39.17
2023-03-02T00:27:59.705Z,43.15
2023-03-02T00:30:34.378Z,39.13
2023-03-02T00:33:08.061Z,45.22
2023-03-02T00:35:45.823Z,39.03
2023-03-02T00:38:19.396Z,45.53
2023-03-02T00:40:57.083Z,43.75
2023-03-02T00:43:31.757Z,43.60
2023-03-02T00:46:06.596Z,43.13
2023-03-02T00:48:40.117Z,46.65
2023-03-02T00:51:14.791Z,46.55
2023-03-02T00:53:48.478Z,46.67
2023-03-02T00:56:23.151Z,47.03
2023-03-02T00:58:57.869Z,46.53
2023-03-02T01:01:31.537Z,50.25
2023-03-02T01:04:06.212Z,50.88
2023-03-02T01:06:39.904Z,48.25
2023-03-02T01:09:13.567Z,54.95
2023-03-02T01:11:47.259Z,47.42
2023-03-02T01:14:24.968Z,47.35
2023-03-02T01:16:58.628Z,55.55
2023-03-02T01:19:33.307Z,48.85
2023-03-02T01:22:05.974Z,54.42
2023-03-02T01:24:39.637Z,56.20
2023-03-02T01:27:13.310Z,49.60
2023-03-02T01:29:48.026Z,55.67
2023-03-02T01:32:21.721Z,49.05
2023-03-02T01:34:56.370Z,55.67
2023-03-02T01:37:31.073Z,53.65
2023-03-02T01:40:07.766Z,55.75
2023-03-02T01:42:44.466Z,53.53
2023-03-02T01:45:35.308Z,54.42
2023-03-02T01:48:08.897Z,52.10
2023-03-02T01:50:43.587Z,61.75
2023-03-02T01:53:17.258Z,50.95
2023-03-02T01:55:51.950Z,54.72
2023-03-02T01:58:26.633Z,62.03
2023-03-02T02:01:00.382Z,52.92
2023-03-02T02:03:37.038Z,58.45
2023-03-02T02:06:21.778Z,60.35
2023-03-02T02:08:59.451Z,56.38
2023-03-02T02:11:33.117Z,60.30
2023-03-02T02:14:07.799Z,57.50
2023-03-02T02:16:42.531Z,59.45
2023-03-02T02:19:29.224Z,56.75
2023-03-02T02:22:03.551Z,51.15
2023-03-02T02:24:42.626Z,59.85
2023-03-02T02:27:17.305Z,50.70
2023-03-02T02:29:57.013Z,60.88
2023-03-02T02:32:35.780Z,58.17
2023-03-02T02:35:09.427Z,57.55
2023-03-02T02:37:49.155Z,56.35
2023-03-02T02:40:44.905Z,60.50
2023-03-02T02:43:20.586Z,57.20
2023-03-02T02:45:55.363Z,59.50
2023-03-02T02:48:29.954Z,59.42
2023-03-02T02:51:05.655Z,61.92
2023-03-02T02:54:04.446Z,57.25
2023-03-02T02:56:40.132Z,51.05
2023-03-02T02:59:19.836Z,54.65
2023-03-02T03:01:54.506Z,53.92
2023-03-02T03:04:35.285Z,57.97
2023-03-02T03:07:08.876Z,59.22
2023-03-02T03:09:43.582Z,55.15
2023-03-02T03:12:25.280Z,49.58
2023-03-02T03:14:59.962Z,52.75
2023-03-02T03:17:34.635Z,52.80
2023-03-02T03:20:13.326Z,56.45
2023-03-02T03:22:51.025Z,46.13
2023-03-02T03:25:24.710Z,57.03
2023-03-02T03:27:59.372Z,56.67
2023-03-02T03:30:34.082Z,57.85
2023-03-02T03:33:07.747Z,57.22
2023-03-02T03:35:41.507Z,55.83
2023-03-02T03:38:16.121Z,48.58
2023-03-02T03:40:52.805Z,56.13
2023-03-02T03:43:27.522Z,49.88
2023-03-02T03:46:01.199Z,55.08
2023-03-02T03:48:35.898Z,48.85
2023-03-02T03:51:10.522Z,48.20
2023-03-02T03:53:43.193Z,50.60
2023-03-02T03:56:17.880Z,50.92
2023-03-02T03:58:51.604Z,53.83
2023-03-02T04:01:26.269Z,54.08
2023-03-02T04:03:59.954Z,49.05
2023-03-02T04:06:34.871Z,57.83
2023-03-02T04:09:09.296Z,50.83
2023-03-02T04:11:42.989Z,46.00
2023-03-02T04:14:17.681Z,48.95
2023-03-02T04:16:51.300Z,47.70
2023-03-02T04:19:25.998Z,45.67
2023-03-02T04:22:01.736Z,46.70
2023-03-02T04:24:36.395Z,53.78
2023-03-02T04:27:09.072Z,46.55
2023-03-02T04:29:42.759Z,51.00
2023-03-02T04:32:19.525Z,52.83
2023-03-02T04:34:52.468Z,45.00
2023-03-02T04:37:26.808Z,47.45
2023-03-02T04:40:00.489Z,40.92
2023-03-02T04:42:35.163Z,47.45
2023-03-02T04:45:07.864Z,49.97
2023-03-02T04:47:42.533Z,44.05
2023-03-02T04:50:17.227Z,42.30
2023-03-02T04:52:51.903Z,47.97
2023-03-02T04:55:31.607Z,42.22
2023-03-02T04:58:05.285Z,42.40
2023-03-02T05:00:39.944Z,47.40
2023-03-02T05:03:13.640Z,47.05
2023-03-02T05:05:48.319Z,44.40
2023-03-02T05:08:22.016Z,41.53
2023-03-02T05:10:56.670Z,42.33
2023-03-02T05:13:31.337Z,48.40
2023-03-02T05:16:06.050Z,42.65
2023-03-02T05:18:40.676Z,45.35
2023-03-02T05:21:17.382Z,45.10
2023-03-02T05:23:52.065Z,38.83
2023-03-02T05:26:25.738Z,38.35
2023-03-02T05:28:59.435Z,39.38
2023-03-02T05:31:39.186Z,45.17
2023-03-02T05:34:13.829Z,47.25
2023-03-02T05:36:47.504Z,45.78
2023-03-02T05:39:22.174Z,41.63
2023-03-02T05:41:55.905Z,45.17
2023-03-02T05:44:30.521Z,46.97
2023-03-02T05:47:03.626Z,47.25
2023-03-02T05:49:37.550Z,44.25
2023-03-02T05:52:11.555Z,44.90
2023-03-02T05:54:45.238Z,43.83
2023-03-02T05:57:19.927Z,43.20
2023-03-02T05:59:54.619Z,46.30
2023-03-02T06:02:25.916Z,43.35
2023-03-02T06:04:58.976Z,42.55
2023-03-02T06:07:34.666Z,46.67
2023-03-02T06:10:07.354Z,44.55
2023-03-02T06:12:41.016Z,50.47
2023-03-02T06:15:14.673Z,45.53
2023-03-02T06:17:49.345Z,46.08
2023-03-02T06:20:24.031Z,43.65
2023-03-02T06:22:58.714Z,43.10
2023-03-02T06:25:33.399Z,48.70
2023-03-02T06:28:07.074Z,45.03
2023-03-02T06:30:35.381Z,44.58
2023-03-02T06:33:10.428Z,49.75
2023-03-02T06:35:40.997Z,44.03
2023-03-02T06:38:13.773Z,44.13
2023-03-02T06:40:43.986Z,46.75
2023-03-02T06:43:14.084Z,48.25
2023-03-02T06:45:43.452Z,49.08
2023-03-02T06:48:12.802Z,47.70
2023-03-02T06:50:46.081Z,53.22
2023-03-02T06:53:22.768Z,44.88
2023-03-02T06:55:54.436Z,49.58
2023-03-02T06:58:29.127Z,46.83
2023-03-02T07:01:02.834Z,44.47
2023-03-02T07:03:37.250Z,42.97
2023-03-02T07:06:12.178Z,43.88
2023-03-02T07:08:45.845Z,43.10
2023-03-02T07:11:20.517Z,50.17
2023-03-02T07:13:54.198Z,51.20
2023-03-02T07:16:28.890Z,45.60
2023-03-02T07:19:04.527Z,42.53
2023-03-02T07:21:37.545Z,44.17
2023-03-02T07:24:11.039Z,48.00
2023-03-02T07:26:41.324Z,54.72
2023-03-02T07:29:17.218Z,53.05
2023-03-02T07:31:50.915Z,46.08
2023-03-02T07:34:19.393Z,44.67
2023-03-02T07:36:50.829Z,60.80
2023-03-02T07:41:53.526Z,49.90
2023-03-02T07:44:28.239Z,46.60
2023-03-02T07:47:03.150Z,44.75
2023-03-02T07:49:36.587Z,47.67
2023-03-02T07:52:08.253Z,47.10
2023-03-02T07:54:40.931Z,50.20
2023-03-02T07:57:15.613Z,50.58
2023-03-02T07:59:49.284Z,56.35
2023-03-02T08:02:25.032Z,53.60
2023-03-02T08:04:59.769Z,43.00
2023-03-02T08:07:34.345Z,50.20
2023-03-02T08:10:07.021Z,48.03
2023-03-02T08:12:40.713Z,44.55
2023-03-02T08:15:14.408Z,44.95
2023-03-02T08:17:49.087Z,47.83
2023-03-02T08:20:21.763Z,46.47
2023-03-02T08:22:52.441Z,39.90
2023-03-02T08:25:28.115Z,46.33
2023-03-02T08:28:02.792Z,39.67
2023-03-02T08:30:37.490Z,45.53
2023-03-02T08:33:11.135Z,40.88
2023-03-02T08:35:43.880Z,43.40
2023-03-02T08:38:17.504Z,40.08
2023-03-02T08:40:52.169Z,38.03
2023-03-02T08:43:25.848Z,39.58
2023-03-02T08:46:00.634Z,41.90
2023-03-02T08:48:35.176Z,36.15
2023-03-02T08:51:12.094Z,39.60
2023-03-02T08:53:46.632Z,32.53
2023-03-02T08:56:24.354Z,35.97
2023-03-02T08:58:53.534Z,38.60
2023-03-02T09:01:27.523Z,34.30
2023-03-02T09:04:02.438Z,35.25
2023-03-02T09:06:35.088Z,32.15
2023-03-02T09:09:08.473Z,31.50
2023-03-02T09:11:41.446Z,32.88
2023-03-02T09:14:11.287Z,36.45
2023-03-02T09:16:42.847Z,33.08
2023-03-02T09:19:16.456Z,38.17
2023-03-02T09:21:50.167Z,30.27
2023-03-02T09:24:21.865Z,33.78
2023-03-02T09:26:55.566Z,34.00
2023-03-02T09:29:30.241Z,28.70
2023-03-02T09:32:01.020Z,30.50
2023-03-02T09:34:35.601Z,29.63
2023-03-02T09:37:05.124Z,33.63
2023-03-02T09:39:36.973Z,32.67
2023-03-02T09:42:19.692Z,29.75
2023-03-02T09:45:00.397Z,30.25
2023-03-02T09:47:40.129Z,32.30
2023-03-02T09:50:28.894Z,27.92
2023-03-02T09:53:15.662Z,29.42
2023-03-02T09:56:00.482Z,30.63
2023-03-02T09:58:36.107Z,29.05
2023-03-02T10:01:14.342Z,26.65
2023-03-02T10:04:11.742Z,27.00
2023-03-02T10:06:46.321Z,30.05
2023-03-02T10:09:20.015Z,29.35
2023-03-02T10:12:00.720Z,32.40
2023-03-02T10:14:39.508Z,24.75
2023-03-02T10:17:30.225Z,26.40
2023-03-02T10:20:07.921Z,30.40
2023-03-02T10:22:46.530Z,25.98
2023-03-02T10:25:35.283Z,23.30
2023-03-02T10:28:16.115Z,23.55
2023-03-02T10:30:50.852Z,26.42
2023-03-02T10:33:26.507Z,23.67
2023-03-02T10:35:56.300Z,23.77
2023-03-02T10:38:30.882Z,22.38
2023-03-02T10:41:08.604Z,20.95
2023-03-02T10:43:43.320Z,21.95
2023-03-02T10:46:17.052Z,21.92
2023-03-02T10:49:05.780Z,19.58
2023-03-02T10:51:40.477Z,24.83
2023-03-02T10:54:21.186Z,21.50
2023-03-02T10:56:56.857Z,21.90
2023-03-02T10:59:46.978Z,22.48
2023-03-02T11:02:32.333Z,24.65
2023-03-02T11:05:25.105Z,19.92
2023-03-02T11:07:59.809Z,18.52
2023-03-02T11:10:44.557Z,20.45
2023-03-02T11:13:28.258Z,18.15
2023-03-02T11:16:03.445Z,19.77
2023-03-02T11:18:41.624Z,19.23
2023-03-02T11:21:44.438Z,18.70
2023-03-02T11:24:18.137Z,22.13
2023-03-02T11:26:52.814Z,20.38
2023-03-02T11:29:29.607Z,17.42
2023-03-02T11:32:06.260Z,14.60
2023-03-02T11:34:56.015Z,17.52
2023-03-02T11:37:32.612Z,19.25
2023-03-02T11:40:22.450Z,17.63
2023-03-02T11:42:57.006Z,16.10
2023-03-02T11:45:31.657Z,16.75
2023-03-02T11:48:18.405Z,15.10
2023-03-02T11:51:03.550Z,15.95
2023-03-02T11:53:42.840Z,15.63
2023-03-02T11:56:13.485Z,18.73
2023-03-02T11:58:48.177Z,14.00
2023-03-02T12:01:28.912Z,14.65
2023-03-02T12:04:12.600Z,13.77
2023-03-02T12:06:50.298Z,13.93
2023-03-02T12:09:26.134Z,18.30
2023-03-02T12:12:06.726Z,12.07
2023-03-02T12:14:45.436Z,12.52
2023-03-02T12:17:28.182Z,15.43
2023-03-02T12:20:14.930Z,12.40
2023-03-02T12:22:48.613Z,13.50
2023-03-02T12:25:27.303Z,16.08
2023-03-02T12:28:01.992Z,14.38
2023-03-02T12:30:36.669Z,13.35
2023-03-02T12:33:10.352Z,11.98
2023-03-02T12:35:47.712Z,12.82
2023-03-02T12:38:22.764Z,10.77
2023-03-02T12:41:00.413Z,11.98
2023-03-02T12:43:41.136Z,12.02
2023-03-02T12:46:32.175Z,11.85
2023-03-02T12:49:07.538Z,12.38
2023-03-02T12:51:51.570Z,11.50
2023-03-02T12:54:29.005Z,12.32
2023-03-02T12:57:14.774Z,11.00
2023-03-02T12:59:48.454Z,14.15
2023-03-02T13:02:26.182Z,14.75
2023-03-02T13:05:08.821Z,13.13
2023-03-02T13:07:49.552Z,12.90
2023-03-02T13:10:30.324Z,13.52
2023-03-02T13:13:04.958Z,11.60
2023-03-02T13:15:39.632Z,9.70
2023-03-02T13:18:17.338Z,11.55
2023-03-02T13:20:47.997Z,10.70
2023-03-02T13:23:21.684Z,10.70
2023-03-02T13:25:57.343Z,12.73
2023-03-02T13:28:36.049Z,12.45
2023-03-02T13:31:23.903Z,10.82
2023-03-02T13:33:58.463Z,11.15
2023-03-02T13:36:37.174Z,10.55
2023-03-02T13:39:10.830Z,14.00
2023-03-02T13:41:45.508Z,11.02
2023-03-02T13:44:23.877Z,11.00
2023-03-02T13:46:57.874Z,11.30
2023-03-02T13:49:37.680Z,11.95
2023-03-02T13:52:11.280Z,9.95
2023-03-02T13:54:48.018Z,11.63
2023-03-02T13:57:22.682Z,13.45
2023-03-02T13:59:56.333Z,13.88
2023-03-02T14:02:31.012Z,10.80
2023-03-02T14:05:01.395Z,11.43
2023-03-02T14:07:31.316Z,13.35
2023-03-02T14:10:02.401Z,11.88
2023-03-02T14:12:36.678Z,10.63
2023-03-02T14:15:11.355Z,9.57
2023-03-02T14:17:45.806Z,11.95
2023-03-02T14:20:18.695Z,10.85
2023-03-02T14:22:51.365Z,16.30
2023-03-02T14:25:24.024Z,18.27
2023-03-02T14:27:58.702Z,12.60
2023-03-02T14:30:32.378Z,18.70
2023-03-02T14:33:06.068Z,17.60
2023-03-02T14:35:38.196Z,16.30
2023-03-02T14:38:05.477Z,18.50
2023-03-02T14:40:39.061Z,19.60
2023-03-02T14:43:12.854Z,14.88
2023-03-02T14:45:47.390Z,12.02
2023-03-02T14:48:21.467Z,10.15
2023-03-02T14:50:54.766Z,10.27
2023-03-02T14:53:30.442Z,11.02
2023-03-02T14:56:03.207Z,11.45
2023-03-02T14:58:38.791Z,14.25
2023-03-02T15:01:12.484Z,19.52
2023-03-02T15:03:46.278Z,17.58
2023-03-02T15:06:29.904Z,14.57
2023-03-02T15:09:00.577Z,17.17
2023-03-02T15:11:35.628Z,18.42
2023-03-02T15:14:07.912Z,17.08
2023-03-02T15:16:39.999Z,17.00
2023-03-02T15:19:12.326Z,18.27
2023-03-02T15:21:45.823Z,14.63
2023-03-02T15:24:16.531Z,15.85
2023-03-02T15:26:46.062Z,17.75
2023-03-02T15:29:17.681Z,15.55
2023-03-02T15:31:50.756Z,15.70
2023-03-02T15:34:25.358Z,16.58
2023-03-02T15:37:00.026Z,16.50
2023-03-02T15:39:33.707Z,17.30
2023-03-02T15:42:06.664Z,15.20
2023-03-02T15:44:40.053Z,17.50
2023-03-02T15:47:14.748Z,18.35
2023-03-02T15:49:52.656Z,18.13
2023-03-02T15:52:25.780Z,18.25
2023-03-02T15:55:06.844Z,16.90
2023-03-02T15:57:43.497Z,20.00
2023-03-02T16:00:18.165Z,19.00
2023-03-02T16:02:53.899Z,18.83
2023-03-02T16:05:28.465Z,17.30
2023-03-02T16:08:03.144Z,20.83
2023-03-02T16:10:37.445Z,19.98
2023-03-02T16:13:11.380Z,16.23
2023-03-02T16:15:48.025Z,15.80
2023-03-02T16:18:21.662Z,18.98
2023-03-02T16:20:56.309Z,17.50
2023-03-02T16:23:29.945Z,18.52
2023-03-02T16:26:13.624Z,15.65
2023-03-02T16:28:47.269Z,14.55
2023-03-02T16:31:23.951Z,19.77
2023-03-02T16:33:57.563Z,16.75
2023-03-02T16:36:32.200Z,18.92
2023-03-02T16:39:05.844Z,17.83
2023-03-02T16:41:43.510Z,22.35
2023-03-02T16:44:18.145Z,20.70
2023-03-02T16:46:52.780Z,19.38
2023-03-02T16:49:27.418Z,21.58
2023-03-02T16:52:03.083Z,22.10
2023-03-02T16:54:36.703Z,21.02
2023-03-02T16:57:09.334Z,20.40
2023-03-02T16:59:42.971Z,21.85
2023-03-02T17:02:17.601Z,17.73
2023-03-02T17:04:52.247Z,21.88
2023-03-02T17:07:25.883Z,22.98
2023-03-02T17:10:00.532Z,25.05
2023-03-02T17:12:34.171Z,23.23
2023-03-02T17:15:07.806Z,25.10
2023-03-02T17:17:42.469Z,21.27
2023-03-02T17:20:16.166Z,27.38
2023-03-02T17:22:52.870Z,22.48
2023-03-02T17:28:54.416Z,25.92
2023-03-02T17:31:28.106Z,25.65
2023-03-02T17:34:02.771Z,24.92
2023-03-02T17:36:38.464Z,25.58
2023-03-02T17:39:10.123Z,24.00
2023-03-02T17:41:43.785Z,26.23
2023-03-02T17:44:17.468Z,27.80
2023-03-02T17:46:52.164Z,23.23
2023-03-02T17:49:25.829Z,26.50
2023-03-02T17:52:00.509Z,27.52
2023-03-02T17:54:35.177Z,25.75
2023-03-02T17:57:07.858Z,24.50
2023-03-02T17:59:42.530Z,26.30
2023-03-02T18:02:16.224Z,23.60
2023-03-02T18:04:50.907Z,22.20
2023-03-02T18:07:27.611Z,24.55
2023-03-02T18:10:00.307Z,23.23
2023-03-02T18:12:34.993Z,24.88
2023-03-02T18:15:08.645Z,25.25
2023-03-02T18:17:42.341Z,24.65
2023-03-02T18:20:16.021Z,24.85
2023-03-02T18:22:48.629Z,25.80
2023-03-02T18:25:21.360Z,23.70
2023-03-02T18:27:56.073Z,27.33
2023-03-02T18:30:28.257Z,25.08
2023-03-02T18:33:02.091Z,21.75
2023-03-02T18:35:37.086Z,23.00
2023-03-02T18:38:07.775Z,23.52
2023-03-02T18:40:42.465Z,25.63
2023-03-02T18:43:16.118Z,22.10
2023-03-02T18:45:48.474Z,30.88
2023-03-02T18:48:18.596Z,26.20
2023-03-02T18:50:50.257Z,29.67
2023-03-02T18:53:23.759Z,34.63
2023-03-02T18:55:56.737Z,29.52
2023-03-02T18:58:32.148Z,25.50
2023-03-02T19:01:05.884Z,24.45
2023-03-02T19:03:41.487Z,22.27
2023-03-02T19:06:15.171Z,23.02
2023-03-02T19:08:50.862Z,23.65
2023-03-02T19:11:24.537Z,23.42
2023-03-02T19:13:55.201Z,21.02
2023-03-02T19:16:29.964Z,18.95
2023-03-02T19:19:03.558Z,20.92
2023-03-02T19:21:36.244Z,20.65
2023-03-02T19:24:07.628Z,19.38
2023-03-02T19:29:13.282Z,17.42
2023-03-02T19:31:43.967Z,19.60
2023-03-02T19:34:18.706Z,20.52
2023-03-02T19:36:53.286Z,19.05
2023-03-02T19:39:28.961Z,19.00
2023-03-02T19:42:01.609Z,19.85
2023-03-02T19:44:34.292Z,23.80
2023-03-02T19:47:08.982Z,19.92
2023-03-02T19:49:42.668Z,22.13
2023-03-02T19:52:10.885Z,18.40
2023-03-02T19:54:41.185Z,19.92
2023-03-02T19:57:13.650Z,22.90
2023-03-02T19:59:45.328Z,19.38
2023-03-02T20:02:18.047Z,21.42
2023-03-02T20:04:49.683Z,22.02
2023-03-02T20:07:22.419Z,22.20
2023-03-02T20:09:54.009Z,20.05
2023-03-02T20:12:26.766Z,23.77
2023-03-02T20:15:00.367Z,23.25
2023-03-02T20:17:35.084Z,25.35
2023-03-02T20:20:09.712Z,24.10
2023-03-02T20:22:44.408Z,25.70
2023-03-02T20:25:18.007Z,23.33
2023-03-02T20:27:53.800Z,26.77
2023-03-02T20:30:31.315Z,26.13
2023-03-02T20:33:03.418Z,25.13
2023-03-02T20:35:37.561Z,24.63
2023-03-02T20:38:11.551Z,28.42
2023-03-02T20:40:46.170Z,25.05
2023-03-02T20:43:18.857Z,27.23
2023-03-02T20:45:53.631Z,26.13
2023-03-02T20:48:26.195Z,26.50
2023-03-02T20:51:00.893Z,26.52
2023-03-02T20:53:34.579Z,27.25
2023-03-02T20:56:08.273Z,26.38
2023-03-02T20:58:45.944Z,29.60
2023-03-02T21:01:17.321Z,25.73
2023-03-02T21:03:52.304Z,28.55
2023-03-02T21:06:26.003Z,28.05
2023-03-02T21:09:00.637Z,31.55
2023-03-02T21:11:34.299Z,31.05
2023-03-02T21:14:06.980Z,34.30
2023-03-02T21:16:43.702Z,31.05
2023-03-02T21:19:23.318Z,29.77
2023-03-02T21:21:56.015Z,29.70
2023-03-02T21:24:28.721Z,30.27
2023-03-02T21:27:05.424Z,34.60
2023-03-02T21:29:40.140Z,34.83
2023-03-02T21:32:14.854Z,36.80
2023-03-02T21:34:52.489Z,33.70
2023-03-02T21:37:26.197Z,34.17
2023-03-02T21:39:57.503Z,36.80
2023-03-02T21:42:31.484Z,35.28
2023-03-02T21:45:08.163Z,34.47
2023-03-02T21:47:42.870Z,33.92
2023-03-02T21:50:19.527Z,37.58
2023-03-02T21:52:48.164Z,37.55
2023-03-02T21:55:22.828Z,37.72
2023-03-02T21:57:56.471Z,38.20
2023-03-02T22:00:37.181Z,31.02
2023-03-02T22:03:11.873Z,35.17
2023-03-02T22:05:45.538Z,41.10
2023-03-02T22:08:25.268Z,42.28
2023-03-02T22:10:57.389Z,40.90
2023-03-02T22:13:32.602Z,42.10
2023-03-02T22:16:12.749Z,41.13
2023-03-02T22:18:47.002Z,38.00
2023-03-02T22:21:34.857Z,39.75
2023-03-02T22:24:18.129Z,45.22
2023-03-02T22:26:52.814Z,41.05
2023-03-02T22:29:27.841Z,45.60
2023-03-02T22:32:03.486Z,37.20
2023-03-02T22:34:40.113Z,34.75
2023-03-02T22:37:19.894Z,38.50
2023-03-02T22:39:53.566Z,37.08
2023-03-02T22:42:32.276Z,39.70
2023-03-02T22:45:05.958Z,39.05
2023-03-02T22:47:40.650Z,38.55
2023-03-02T22:50:20.343Z,37.00
2023-03-02T22:52:55.019Z,35.60
2023-03-02T22:55:44.764Z,38.08
2023-03-02T22:58:25.477Z,38.40
2023-03-02T23:01:00.253Z,39.42
2023-03-02T23:03:42.874Z,37.10
2023-03-02T23:06:29.631Z,34.95
2023-03-02T23:09:03.558Z,36.95
2023-03-02T23:11:39.992Z,38.72
2023-03-02T23:14:29.757Z,34.60
2023-03-02T23:17:08.460Z,30.92
2023-03-02T23:19:43.116Z,35.20
2023-03-02T23:22:16.799Z,34.35
2023-03-02T23:24:51.511Z,30.38
2023-03-02T23:27:25.139Z,35.35
2023-03-02T23:29:59.837Z,32.70
2023-03-02T23:32:31.530Z,30.00
2023-03-02T23:35:06.159Z,33.55
2023-03-02T23:37:39.841Z,28.52
2023-03-02T23:40:14.527Z,30.27
2023-03-02T23:42:48.227Z,32.38
2023-03-02T23:45:22.897Z,32.25
2023-03-02T23:47:56.569Z,29.70
2023-03-02T23:50:31.260Z,30.02
2023-03-02T23:53:04.938Z,31.15
2023-03-02T23:55:39.714Z,34.47
2023-03-02T23:58:13.313Z,29.45
